Dorcas, West Virginia
Current Conditions -  °F | °C
As of 3:15 PM on Wednesday 28 Jan 2015 (Local Time) from KW99 Reporting Station
Clear Clear  
Wind Chill: 25°   Ceiling: Unl
Heat Index: 33°   Visibility: 10mi
Dew Point:   Wind: 10mph
Humidity: 25%   Direction: 330°NNW
Pressure: 30.26"   Gusts: 16mph
Location:  38.9337°N, 79.1435°W
Report Text: KW99 282015Z AUTO 33009G14KT 10SM CLR 01/M18 A3026 RMK AO2 T00081176
Loading
Personal Weather Stations






























Interactive Weather Map New forecast layout! Learn more

10-Day Weather Forecast

Advertisements
Track Severe Weather on mobile